E.r. Vancouver — LXVQ — position and weather

sailwx.info

Track history (hours):
 
Tides and Currents Weather Stations Pressure Air Temp Water Temp Dewpoint Dewpoint Depression Visibility Wind Speed Wind Dir Waves Ship Positions

E.r. Vancouver

Last reported at 2018-Jul-13 12:00 UTC. Time now 2018-Jul-21 19:13 UTC.
Position S 38°36' E 140°42'.
Warning: this ship's position is 8 days out of date.

; draft 12.3 m.

Type: Ship (hazmat cat A). MMSI: 253406000.

Wind from 010 at 15 knots

Barometer 1021.1 mb
Air temperature 12.2 ° C
Visibility: greater than 10.8 NM
Dewpoint 5.6 ° C

Date/timePositionNaut miles runAvg speedWind from/ knotsBaromVisibWave heightAir tempDewpointWater temp
2018-Jul-13 12:00S 38°36' E 140°42'   010 / 151021.110.8 12.2 5.6
2018-Jul-11 00:00S 38°24' E 148°36'482.7 310 / 71023.010.8 12.5 5.915.0
2018-Jul-10 23:57S 38°25' E 148°40'919.6
2018-Jul-10 23:30S 38°20' E 148°49'1019.8
2018-Jul-10 23:00S 38°15' E 149°00'1020.1
2018-Jul-10 22:30S 38°09' E 149°11'1119.9
2018-Jul-10 21:58S 38°03' E 149°22'919.6
2018-Jul-10 21:30S 37°58' E 149°32'18319.2
2018-Jul-10 12:00S 35°12' E 151°06'5918.5 350 / 71025.010.8 16.0 5.3
2018-Jul-10 08:48S 34°14' E 151°19'618.6
2018-Jul-10 08:30S 34°09' E 151°20'714.1
2018-Jul-10 07:59S 34°02' E 151°17'5 0.1
2018-Jul-08 15:34S 33°58' E 151°12'0 0.0
2018-Jul-08 15:28S 33°58' E 151°12'0 0.0
2018-Jul-07 20:56S 33°58' E 151°12'0 0.0
2018-Jul-07 20:25S 33°58' E 151°12'0 0.0
2018-Jul-07 19:49S 33°58' E 151°12'0 0.0
2018-Jul-07 18:00S 33°58' E 151°12'  
2018-Jul-05 10:21S 34°01' E 151°15'513.4
2018-Jul-05 10:00S 34°04' E 151°19'3 4.9
2018-Jul-05 09:29S 34°06' E 151°22'612.2
2018-Jul-05 09:00S 34°11' E 151°24'916.6
2018-Jul-05 08:27S 34°20' E 151°23'716.8
2018-Jul-05 08:00S 34°28' E 151°23'816.7
2018-Jul-05 07:30S 34°36' E 151°23'20615.3
2018-Jul-04 18:00S 37°48' E 149°48'1023.5 340 / 101016.610.8 17.4 7.415.0
2018-Jul-04 17:35S 37°57' E 149°44'216.5
2018-Jul-04 17:28S 37°58' E 149°42'1316.1
2018-Jul-04 16:39S 38°06' E 149°28'315.4
2018-Jul-04 16:26S 38°08' E 149°25'715.5
2018-Jul-04 15:59S 38°12' E 149°18'815.5
2018-Jul-04 15:28S 38°17' E 149°10'816.5
2018-Jul-04 14:58S 38°22' E 149°01'816.5
2018-Jul-04 14:30S 38°26' E 148°53'1416.2
2018-Jul-04 13:39S 38°34' E 148°39'216.3
2018-Jul-04 13:30S 38°36' E 148°36'816.2
2018-Jul-04 12:59S 38°40' E 148°27'1016.5
2018-Jul-04 12:22S 38°46' E 148°17'1016.5
2018-Jul-04 11:45S 38°49' E 148°04'517.1
2018-Jul-04 11:26S 38°51' E 147°57'1017.1
2018-Jul-04 10:51S 38°54' E 147°45'717.0
2018-Jul-04 10:27S 38°56' E 147°37'7717.3
2018-Jul-04 06:00S 39°12' E 146°00'28916.1 340 / 301014.5 5.4 15.8 8.515.0
2018-Jul-03 12:00S 38°54' E 139°48'   360 / 381011.9 5.4 16.0 8.7
Track history (hours):
 
Tides and Currents Weather Stations Pressure Air Temp Water Temp Dewpoint Dewpoint Depression Visibility Wind Speed Wind Dir Waves Ship Positions

E.r. Vancouver

Last reported at 2018-Jul-13 12:00 UTC. Time now 2018-Jul-21 19:13 UTC.
Position S 38°36' E 140°42'.
Warning: this ship's position is 8 days out of date.

; draft 12.3 m.

Type: Ship (hazmat cat A). MMSI: 253406000.

Wind from 010 at 15 knots

Barometer 1021.1 mb
Air temperature 12.2 ° C
Visibility: greater than 10.8 NM
Dewpoint 5.6 ° C

Date/timePositionNaut miles runAvg speedWind from/ knotsBaromVisibWave heightAir tempDewpointWater temp
2018-Jul-13 12:00S 38°36' E 140°42'   010 / 151021.110.8 12.2 5.6
2018-Jul-11 00:00S 38°24' E 148°36'482.7 310 / 71023.010.8 12.5 5.915.0
2018-Jul-10 23:57S 38°25' E 148°40'919.6
2018-Jul-10 23:30S 38°20' E 148°49'1019.8
2018-Jul-10 23:00S 38°15' E 149°00'1020.1
2018-Jul-10 22:30S 38°09' E 149°11'1119.9
2018-Jul-10 21:58S 38°03' E 149°22'919.6
2018-Jul-10 21:30S 37°58' E 149°32'18319.2
2018-Jul-10 12:00S 35°12' E 151°06'5918.5 350 / 71025.010.8 16.0 5.3
2018-Jul-10 08:48S 34°14' E 151°19'618.6
2018-Jul-10 08:30S 34°09' E 151°20'714.1
2018-Jul-10 07:59S 34°02' E 151°17'5 0.1
2018-Jul-08 15:34S 33°58' E 151°12'0 0.0
2018-Jul-08 15:28S 33°58' E 151°12'0 0.0
2018-Jul-07 20:56S 33°58' E 151°12'0 0.0
2018-Jul-07 20:25S 33°58' E 151°12'0 0.0
2018-Jul-07 19:49S 33°58' E 151°12'0 0.0
2018-Jul-07 18:00S 33°58' E 151°12'  
2018-Jul-05 10:21S 34°01' E 151°15'513.4
2018-Jul-05 10:00S 34°04' E 151°19'3 4.9
2018-Jul-05 09:29S 34°06' E 151°22'612.2
2018-Jul-05 09:00S 34°11' E 151°24'916.6
2018-Jul-05 08:27S 34°20' E 151°23'716.8
2018-Jul-05 08:00S 34°28' E 151°23'816.7
2018-Jul-05 07:30S 34°36' E 151°23'20615.3
2018-Jul-04 18:00S 37°48' E 149°48'1023.5 340 / 101016.610.8 17.4 7.415.0
2018-Jul-04 17:35S 37°57' E 149°44'216.5
2018-Jul-04 17:28S 37°58' E 149°42'1316.1
2018-Jul-04 16:39S 38°06' E 149°28'315.4
2018-Jul-04 16:26S 38°08' E 149°25'715.5
2018-Jul-04 15:59S 38°12' E 149°18'815.5
2018-Jul-04 15:28S 38°17' E 149°10'816.5
2018-Jul-04 14:58S 38°22' E 149°01'816.5
2018-Jul-04 14:30S 38°26' E 148°53'1416.2
2018-Jul-04 13:39S 38°34' E 148°39'216.3
2018-Jul-04 13:30S 38°36' E 148°36'816.2
2018-Jul-04 12:59S 38°40' E 148°27'1016.5
2018-Jul-04 12:22S 38°46' E 148°17'1016.5
2018-Jul-04 11:45S 38°49' E 148°04'517.1
2018-Jul-04 11:26S 38°51' E 147°57'1017.1
2018-Jul-04 10:51S 38°54' E 147°45'717.0
2018-Jul-04 10:27S 38°56' E 147°37'7717.3
2018-Jul-04 06:00S 39°12' E 146°00'28916.1 340 / 301014.5 5.4 15.8 8.515.0
2018-Jul-03 12:00S 38°54' E 139°48'   360 / 381011.9 5.4 16.0 8.7

Dump ship's entire track history